Terminal Aerodrome Forecast
Issued by NWS

Current Version | Previous Version | Graphics & Text | Print | Product List | Glossary On
Versions: 1 2 3 4 5 6 7 8 9 10 11 12 13 14 15 16 17 18 19 20 21 22 23 24 25 26
000
FTUS41 KRLX 272000 AAB
TAFCKB
TAF AMD
KCKB 272014Z 2720/2818 20011G17KT P6SM SCT030 SCT110
     FM272200 20009KT P6SM VCTS SCT030CB BKN110
     FM280300 20006KT P6SM BKN040
     FM281400 29010KT P6SM BKN020
     FM281500 29010KT P6SM VCTS BKN020CB
     FM281700 27010KT P6SM -SHRA VCTS BKN025CB=

USA.gov is the U.S. government's official web portal to all federal, state and local government web resources and services.